Time;durP1;ratioP1;P1;durP2;ratioP2;P2;SDS_P1;SDS_P2;PMS_P1;PMS_P2;Temp;Humidity;BMP_temperature;BMP_pressure;BME280_temperature;BME280_humidity;BME280_pressure;Samples;Min_cycle;Max_cycle;Signal;HPM_P1;HPM_P2
2023/06/07 00:08:17;;;;;;;16.42;13.63;;;;;;;26.64;37.78;100226.81;21092838;28;20032;-62
2023/06/07 00:18:19;;;;;;;19.00;15.18;;;;;;;26.64;38.09;100234.41;21092670;28;20540;-61
2023/06/07 00:28:21;;;;;;;18.23;14.77;;;;;;;26.62;37.89;100237.56;21092143;28;20040;-62
2023/06/07 00:38:25;;;;;;;16.88;14.63;;;;;;;26.62;37.97;100271.25;21092168;28;20044;-63
2023/06/07 00:48:27;;;;;;;19.98;16.10;;;;;;;26.60;37.75;100274.34;21089829;28;20097;-62
2023/06/07 00:58:29;;;;;;;18.55;15.85;;;;;;;26.57;38.03;100288.22;21089502;28;20066;-63
2023/06/07 01:08:31;;;;;;;19.77;17.15;;;;;;;26.38;37.95;100259.72;21087871;28;20040;-63
2023/06/07 01:18:35;;;;;;;20.33;17.27;;;;;;;26.47;37.92;100285.78;21087675;28;20086;-64
2023/06/07 01:28:41;;;;;;;22.75;19.05;;;;;;;26.58;38.15;100309.53;21086532;28;20040;-63
2023/06/07 01:38:44;;;;;;;23.90;19.90;;;;;;;26.62;37.95;100338.59;21086117;28;20044;-63
2023/06/07 01:48:46;;;;;;;24.90;22.20;;;;;;;26.55;37.85;100329.84;21085933;28;20036;-64
2023/06/07 01:59:17;;;;;;;29.83;26.60;;;;;;;26.53;37.72;100346.19;21085282;28;20036;-62
2023/06/07 02:09:21;;;;;;;32.78;28.52;;;;;;;26.62;37.85;100341.41;21081711;28;20171;-62
2023/06/07 02:19:24;;;;;;;34.75;29.58;;;;;;;26.59;37.91;100351.28;21082215;28;20028;-62
2023/06/07 02:29:25;;;;;;;37.17;31.92;;;;;;;26.59;37.82;100376.53;21081718;28;20487;-62
2023/06/07 02:39:27;;;;;;;39.92;34.30;;;;;;;26.52;37.84;100376.22;21081258;28;20028;-62
2023/06/07 02:49:28;;;;;;;38.15;32.30;;;;;;;26.54;37.87;100389.94;21079906;28;20047;-62
2023/06/07 02:59:30;;;;;;;44.00;37.70;;;;;;;26.54;37.86;100401.16;21078766;28;20083;-62
2023/06/07 03:09:31;;;;;;;45.17;40.00;;;;;;;26.52;37.86;100400.66;21078607;28;20101;-63
2023/06/07 03:19:32;;;;;;;52.88;44.58;;;;;;;26.50;37.97;100408.59;21078431;28;20051;-62
2023/06/07 03:29:37;;;;;;;51.38;42.67;;;;;;;26.47;38.17;100409.25;21079379;28;20528;-63
2023/06/07 03:39:44;;;;;;;50.72;45.03;;;;;;;26.45;38.09;100406.78;21077328;28;20047;-63
2023/06/07 03:49:48;;;;;;;52.50;46.67;;;;;;;26.49;38.03;100419.00;21077472;28;20073;-63
2023/06/07 03:59:50;;;;;;;55.70;48.50;;;;;;;26.50;38.05;100419.81;21076774;28;20044;-62
2023/06/07 04:09:52;;;;;;;59.42;49.03;;;;;;;26.50;38.00;100408.59;21076165;28;20396;-62
2023/06/07 04:19:56;;;;;;;54.15;45.88;;;;;;;26.49;38.14;100407.75;21076258;28;20487;-62
2023/06/07 04:30:01;;;;;;;55.45;48.60;;;;;;;26.49;37.97;100401.34;21075793;28;20040;-63
2023/06/07 04:40:03;;;;;;;54.72;47.47;;;;;;;26.38;38.05;100383.97;21074648;28;20484;-63
2023/06/07 04:50:08;;;;;;;57.67;50.88;;;;;;;26.49;37.96;100401.34;21087711;28;20036;-63
2023/06/07 05:00:12;;;;;;;58.97;50.50;;;;;;;26.48;37.97;100410.88;21089091;28;20047;-63
2023/06/07 05:10:13;;;;;;;58.10;50.13;;;;;;;26.43;38.09;100395.03;21088601;28;20040;-63
2023/06/07 05:20:16;;;;;;;62.80;53.25;;;;;;;26.39;37.96;100396.00;21087425;28;20032;-63
2023/06/07 05:30:20;;;;;;;64.72;55.33;;;;;;;26.44;37.98;100387.47;21086593;28;20094;-63
2023/06/07 05:40:24;;;;;;;62.35;53.60;;;;;;;26.35;38.00;100379.03;21086053;28;20044;-63
2023/06/07 05:50:25;;;;;;;68.53;55.78;;;;;;;26.41;37.81;100394.53;21085706;28;20040;-63
2023/06/07 06:00:31;;;;;;;68.25;57.85;;;;;;;26.43;37.91;100403.47;21084738;28;20093;-62
2023/06/07 06:10:32;;;;;;;68.57;56.35;;;;;;;26.38;37.89;100380.34;21084210;28;20044;-62
2023/06/07 06:20:36;;;;;;;68.97;60.33;;;;;;;26.38;38.12;100377.53;21082733;28;20028;-62
2023/06/07 06:30:37;;;;;;;66.93;58.25;;;;;;;26.36;38.18;100364.66;21082352;28;20043;-62
2023/06/07 06:40:39;;;;;;;71.53;61.28;;;;;;;26.34;38.05;100364.19;21083944;28;20040;-61
2023/06/07 06:50:41;;;;;;;74.35;60.95;;;;;;;26.29;37.94;100363.50;21083313;28;20093;-63
2023/06/07 07:00:42;;;;;;;71.88;60.95;;;;;;;26.29;38.08;100364.34;21080287;28;20044;-63
2023/06/07 07:10:44;;;;;;;73.03;63.40;;;;;;;26.31;37.94;100376.06;21078951;28;20479;-63
2023/06/07 07:20:45;;;;;;;74.22;63.78;;;;;;;26.29;37.99;100383.97;21078364;28;20044;-63
2023/06/07 07:30:47;;;;;;;76.10;64.10;;;;;;;26.31;38.07;100378.03;21077406;28;20032;-63
2023/06/07 07:40:52;;;;;;;77.90;64.05;;;;;;;26.29;38.02;100358.72;21077033;28;20475;-63
2023/06/07 07:50:55;;;;;;;70.22;62.45;;;;;;;26.27;37.81;100352.63;21076724;28;20040;-62
2023/06/07 08:00:56;;;;;;;79.18;68.70;;;;;;;26.25;38.00;100345.69;21077489;28;20482;-64
2023/06/07 08:10:58;;;;;;;79.55;67.22;;;;;;;26.23;38.13;100343.22;21076161;28;20036;-63
2023/06/07 08:20:59;;;;;;;76.55;64.35;;;;;;;26.23;37.90;100336.81;21083152;28;20048;-63
2023/06/07 08:31:01;;;;;;;79.13;67.90;;;;;;;26.22;37.98;100335.16;21091734;28;20052;-63
2023/06/07 08:41:03;;;;;;;83.15;68.80;;;;;;;26.20;37.97;100321.44;21090781;28;20069;-63
2023/06/07 08:51:08;;;;;;;80.07;67.65;;;;;;;26.20;37.85;100315.84;21090075;28;20032;-63
2023/06/07 09:01:10;;;;;;;83.43;71.32;;;;;;;26.20;37.83;100326.25;21089359;28;20495;-61
2023/06/07 09:11:14;;;;;;;84.95;72.60;;;;;;;26.20;37.96;100327.06;21088614;28;20074;-62
2023/06/07 09:21:26;;;;;;;87.18;73.22;;;;;;;26.16;37.90;100331.72;21087789;28;20052;-63
2023/06/07 09:31:34;;;;;;;84.88;72.85;;;;;;;26.16;37.70;100322.44;21086454;28;20043;-63
2023/06/07 09:41:36;;;;;;;87.88;76.00;;;;;;;26.17;37.83;100329.72;21087016;28;20048;-62
2023/06/07 09:51:40;;;;;;;91.15;77.53;;;;;;;26.03;37.68;100327.09;21085736;28;20093;-62
2023/06/07 10:01:45;;;;;;;88.97;77.38;;;;;;;26.03;37.79;100336.31;21084475;28;20069;-62
2023/06/07 10:11:50;;;;;;;87.43;76.40;;;;;;;26.09;37.76;100351.81;21084053;28;20560;-62
2023/06/07 10:21:53;;;;;;;88.50;77.03;;;;;;;26.04;37.97;100351.16;21082919;28;20141;-62
2023/06/07 10:32:12;;;;;;;90.68;77.85;;;;;;;25.97;37.98;100350.81;21082257;28;20028;-62
2023/06/07 10:42:14;;;;;;;90.20;77.63;;;;;;;25.77;38.08;100330.72;21080640;28;20044;-62
2023/06/07 10:52:15;;;;;;;95.15;79.05;;;;;;;25.99;38.01;100365.34;21079936;28;20062;-61
2023/06/07 11:02:25;;;;;;;93.90;79.10;;;;;;;25.88;37.98;100352.81;21079813;28;20040;-62
2023/06/07 11:12:35;;;;;;;92.85;78.55;;;;;;;25.88;38.17;100369.63;21078917;28;20073;-63
2023/06/07 11:22:36;;;;;;;92.75;77.72;;;;;;;25.88;38.20;100369.63;21078643;28;20048;-62
2023/06/07 11:32:38;;;;;;;92.07;76.93;;;;;;;25.45;38.25;100297.50;21078013;28;20052;-63
2023/06/07 11:42:39;;;;;;;89.80;77.60;;;;;;;25.81;38.24;100359.72;21076813;28;20177;-62
2023/06/07 11:52:41;;;;;;;94.88;77.78;;;;;;;25.87;38.14;100376.38;21081547;28;20036;-62
2023/06/07 12:02:43;;;;;;;92.18;76.55;;;;;;;25.87;38.04;100373.56;21104728;28;20066;-62
2023/06/07 12:12:44;;;;;;;90.03;77.38;;;;;;;25.89;37.93;100382.47;21103816;28;20036;-63
2023/06/07 12:22:48;;;;;;;87.68;75.25;;;;;;;25.88;38.04;100381.66;21103363;28;20066;-64
2023/06/07 12:32:57;;;;;;;83.65;72.78;;;;;;;25.67;38.02;100356.22;21103414;28;20475;-62
2023/06/07 12:42:58;;;;;;;88.30;74.80;;;;;;;25.89;38.36;100396.47;21102576;28;20040;-62
2023/06/07 12:53:00;;;;;;;84.68;71.43;;;;;;;25.90;38.16;100409.38;21102601;28;20055;-62
2023/06/07 13:03:02;;;;;;;85.65;70.57;;;;;;;25.92;37.98;100407.06;21100266;28;20071;-62
2023/06/07 13:13:03;;;;;;;83.88;71.75;;;;;;;25.91;38.12;100422.22;21088419;28;20548;-62
2023/06/07 13:23:05;;;;;;;83.20;71.85;;;;;;;25.88;37.92;100414.47;21087593;28;20044;-62
2023/06/07 13:33:18;;;;;;;78.97;67.93;;;;;;;25.89;38.19;100433.78;21087394;28;20044;-62
2023/06/07 13:43:23;;;;;;;83.28;69.30;;;;;;;25.78;38.13;100410.81;21086480;28;20048;-62
2023/06/07 13:53:30;;;;;;;76.90;66.30;;;;;;;25.95;37.94;100426.03;21085267;28;20039;-62
2023/06/07 14:03:35;;;;;;;78.88;67.47;;;;;;;25.97;38.02;100412.50;21084467;28;20074;-62
2023/06/07 14:13:37;;;;;;;73.03;64.45;;;;;;;25.99;38.03;100410.22;21083520;28;20479;-62
2023/06/07 14:23:38;;;;;;;79.45;65.55;;;;;;;25.88;37.79;100392.88;21081321;28;20051;-63
2023/06/07 14:33:40;;;;;;;72.88;63.00;;;;;;;25.89;38.01;100394.53;21082102;28;20556;-62
2023/06/07 14:43:41;;;;;;;73.95;62.95;;;;;;;26.02;37.99;100399.13;21081133;28;20391;-63
2023/06/07 14:53:42;;;;;;;73.22;61.97;;;;;;;26.04;37.77;100401.63;21080524;28;20425;-62
2023/06/07 15:03:44;;;;;;;70.93;62.40;;;;;;;25.96;38.00;100371.59;21079057;28;20051;-62
2023/06/07 15:13:47;;;;;;;73.10;61.92;;;;;;;26.06;37.92;100388.91;21078355;28;20085;-62
2023/06/07 15:23:48;;;;;;;68.95;60.60;;;;;;;26.09;37.73;100393.06;21078207;28;20048;-62
2023/06/07 15:33:52;;;;;;;66.43;59.17;;;;;;;26.09;37.82;100367.81;21077374;28;20028;-62
2023/06/07 15:43:56;;;;;;;66.90;58.83;;;;;;;26.09;37.71;100365.03;21077066;28;20044;-63
2023/06/07 15:53:57;;;;;;;66.07;57.92;;;;;;;26.12;37.79;100358.75;21083035;28;20036;-64
2023/06/07 16:03:59;;;;;;;67.18;57.25;;;;;;;26.06;37.28;100332.03;21080272;28;20044;-62
2023/06/07 16:14:00;;;;;;;65.25;55.53;;;;;;;26.10;37.33;100349.84;21075397;28;20052;-63
2023/06/07 16:24:02;;;;;;;101.70;58.00;;;;;;;26.17;37.69;100338.97;21075440;28;20101;-63
2023/06/07 16:34:03;;;;;;;85.82;57.78;;;;;;;26.13;37.50;100337.16;21074043;28;20544;-63
2023/06/07 16:44:07;;;;;;;87.50;56.67;;;;;;;26.15;37.83;100318.81;21087872;28;20128;-63
2023/06/07 16:54:11;;;;;;;71.82;52.75;;;;;;;26.14;37.91;100305.97;21087248;28;20040;-65
2023/06/07 17:04:13;;;;;;;81.00;52.50;;;;;;;26.29;37.53;100305.44;21070729;28;20040;-62
2023/06/07 17:14:18;;;;;;;90.68;54.80;;;;;;;26.28;38.00;100295.38;21088434;28;20407;-62
2023/06/07 17:24:20;;;;;;;140.10;54.65;;;;;;;26.33;38.10;100281.16;21087495;28;20141;-62
2023/06/07 17:34:21;;;;;;;116.22;51.85;;;;;;;26.42;37.86;100271.91;21085976;28;20105;-61
2023/06/07 17:44:28;;;;;;;115.25;52.28;;;;;;;26.30;37.92;100236.97;21086322;28;20028;-61
2023/06/07 17:54:29;;;;;;;102.73;49.57;;;;;;;26.45;38.11;100237.63;21084407;28;20108;-60
2023/06/07 18:04:31;;;;;;;79.28;49.47;;;;;;;26.42;38.30;100232.66;21083679;28;20036;-59
2023/06/07 18:14:33;;;;;;;90.85;47.40;;;;;;;26.47;38.07;100235.28;21080719;28;20032;-60
2023/06/07 18:24:34;;;;;;;94.10;49.92;;;;;;;26.46;38.47;100226.06;21082542;28;20043;-60
2023/06/07 18:34:35;;;;;;;77.13;49.30;;;;;;;26.42;37.74;100233.47;21081293;28;20047;-60
2023/06/07 18:44:37;;;;;;;84.88;49.53;;;;;;;26.44;38.34;100242.41;21081515;28;20066;-58
2023/06/07 18:54:38;;;;;;;95.50;51.15;;;;;;;25.92;39.35;100250.06;21079069;28;20097;-60
2023/06/07 19:04:39;;;;;;;247.00;60.97;;;;;;;25.79;39.65;100232.28;21077218;28;20047;-57
2023/06/07 19:14:41;;;;;;;140.70;58.17;;;;;;;25.76;39.79;100228.19;21076417;28;20101;-57
2023/06/07 19:25:56;;;;;;;99.82;56.63;;;;;;;26.29;41.27;100207.25;21148433;27;20461;-53
2023/06/07 19:35:58;;;;;;;139.45;62.30;;;;;;;26.48;40.97;100215.34;21102338;28;20426;-54
2023/06/07 19:45:59;;;;;;;181.38;67.82;;;;;;;26.54;40.70;100208.38;21062894;28;20421;-51
2023/06/07 19:56:00;;;;;;;202.23;72.65;;;;;;;26.60;41.12;100209.00;21118921;28;20028;-52
2023/06/07 20:06:02;;;;;;;210.07;72.68;;;;;;;26.67;41.00;100212.13;21145101;28;20089;-54
2023/06/07 20:16:06;;;;;;;214.85;78.45;;;;;;;26.69;40.20;100220.19;21144536;28;20036;-53
2023/06/07 20:26:08;;;;;;;140.88;73.97;;;;;;;26.67;40.16;100222.53;21025971;28;20205;-52
2023/06/07 20:36:09;;;;;;;124.25;77.97;;;;;;;26.66;39.58;100221.66;20973121;28;20106;-54
2023/06/07 20:46:10;;;;;;;127.07;82.88;;;;;;;26.63;39.18;100229.97;21003238;28;20443;-55
2023/06/07 20:56:12;;;;;;;116.03;82.93;;;;;;;26.56;39.14;100234.09;21003002;28;20040;-53
2023/06/07 21:06:14;;;;;;;120.65;86.70;;;;;;;26.55;38.76;100240.88;21001217;28;20037;-55
2023/06/07 21:16:16;;;;;;;113.90;90.45;;;;;;;26.48;38.52;100225.72;21001369;28;20044;-55
2023/06/07 21:26:22;;;;;;;127.68;92.22;;;;;;;26.56;38.51;100252.91;20948564;28;20095;-55
2023/06/07 21:36:27;;;;;;;120.55;93.45;;;;;;;26.55;38.23;100270.91;20917166;28;20130;-56
2023/06/07 21:46:31;;;;;;;123.47;96.18;;;;;;;26.54;38.32;100264.50;20945657;28;20571;-54
2023/06/07 21:56:35;;;;;;;124.10;99.57;;;;;;;26.53;38.38;100256.41;20997636;28;20044;-56
2023/06/07 22:06:36;;;;;;;127.70;100.97;;;;;;;26.51;38.55;100251.13;20974234;28;20091;-56
2023/06/07 22:16:38;;;;;;;143.13;102.40;;;;;;;26.51;38.75;100241.88;20914004;28;20045;-52
2023/06/07 22:26:39;;;;;;;162.95;100.88;;;;;;;26.55;39.15;100256.88;20992752;28;20479;-54
2023/06/07 22:36:43;;;;;;;159.18;100.38;;;;;;;26.61;39.80;100258.34;20993154;28;20110;-49
2023/06/07 22:46:47;;;;;;;179.05;97.72;;;;;;;26.61;38.74;100269.56;20993107;28;20387;-49
2023/06/07 22:56:51;;;;;;;205.05;97.57;;;;;;;26.44;38.61;100275.25;21041476;28;20048;-58
2023/06/07 23:06:53;;;;;;;160.40;93.88;;;;;;;26.22;38.24;100287.47;20991888;28;20082;-57
2023/06/07 23:16:59;;;;;;;218.95;101.63;;;;;;;26.19;40.78;100274.94;20991611;28;20447;-55
2023/06/07 23:27:03;;;;;;;309.52;104.05;;;;;;;26.27;43.13;100271.28;21038039;28;20044;-56
2023/06/07 23:37:05;;;;;;;334.70;110.15;;;;;;;26.30;43.81;100276.25;20995052;28;20028;-56
2023/06/07 23:47:06;;;;;;;289.77;105.97;;;;;;;26.41;43.52;100287.09;21006525;28;20070;-56
2023/06/07 23:57:07;;;;;;;215.07;103.57;;;;;;;26.47;43.03;100297.00;21048824;28;20037;-57
